N2459Y KSYR-
Flight info
| Callsign | N2459Y |
|---|---|
| Flight time | N/A |
| Altitude | VFR/ |
| Route | |
| Aircraft | C208/L-VGD/C |
Departure
| Time | 2026-04-26 19:01 |
|---|---|
| Airport | Syracuse Hancock International Airport (KSYR) |
Arrival
| Time | N/A |
|---|---|
| Airport | - |
| Time | Latitude | Longitude | Altitude | Speed | Heading |
|---|---|---|---|---|---|
| 2026-04-26 19:01 | 43.12512 | -76.07555 | 1400 ft | 116 kts | 356° |
| 2026-04-26 19:01 | 43.13031 | -76.08252 | 1390 ft | 128 kts | 271° |
| 2026-04-26 19:01 | 43.12948 | -76.09502 | 1324 ft | 134 kts | 270° |
| 2026-04-26 19:02 | 43.12892 | -76.10787 | 1255 ft | 136 kts | 269° |
| 2026-04-26 19:02 | 43.12802 | -76.12088 | 1196 ft | 137 kts | 267° |
| 2026-04-26 19:02 | 43.12742 | -76.13377 | 1214 ft | 135 kts | 270° |
| 2026-04-26 19:02 | 43.12568 | -76.14180 | 1225 ft | 133 kts | 234° |
| 2026-04-26 19:03 | 43.11510 | -76.14509 | 1185 ft | 100 kts | 173° |
| 2026-04-26 19:03 | 43.10963 | -76.14134 | 845 ft | 89 kts | 126° |
| 2026-04-26 19:03 | 43.10800 | -76.13397 | 595 ft | 77 kts | 83° |
| 2026-04-26 19:03 | 43.10817 | -76.12696 | 484 ft | 72 kts | 83° |
| 2026-04-26 19:04 | 43.10839 | -76.12037 | 429 ft | 64 kts | 86° |
| 2026-04-26 19:04 | 43.10857 | -76.11489 | 424 ft | 62 kts | 86° |
| 2026-04-26 19:04 | 43.10876 | -76.10727 | 605 ft | 86 kts | 87° |
| 2026-04-26 19:04 | 43.10850 | -76.09880 | 875 ft | 97 kts | 92° |
| 2026-04-26 19:05 | 43.11472 | -76.08620 | 1356 ft | 104 kts | 3° |
| 2026-04-26 19:05 | 43.12214 | -76.08789 | 1408 ft | 116 kts | 326° |
| 2026-04-26 19:05 | 43.12536 | -76.09819 | 1455 ft | 130 kts | 272° |
| 2026-04-26 19:06 | 43.12481 | -76.11102 | 1414 ft | 138 kts | 268° |
| 2026-04-26 19:06 | 43.12415 | -76.12425 | 1392 ft | 133 kts | 266° |
| 2026-04-26 19:06 | 43.11975 | -76.13321 | 1222 ft | 101 kts | 200° |
| 2026-04-26 19:06 | 43.11350 | -76.13314 | 901 ft | 87 kts | 175° |
| 2026-04-26 19:07 | 43.10854 | -76.13000 | 610 ft | 76 kts | 114° |
| 2026-04-26 19:07 | 43.10829 | -76.12323 | 426 ft | 65 kts | 86° |
| 2026-04-26 19:07 | 43.10848 | -76.11742 | 422 ft | 74 kts | 86° |
| 2026-04-26 19:07 | 43.10853 | -76.10952 | 723 ft | 79 kts | 88° |
| 2026-04-26 19:08 | 43.10879 | -76.10179 | 1000 ft | 91 kts | 81° |
| 2026-04-26 19:08 | 43.11190 | -76.09437 | 1230 ft | 103 kts | 17° |
| 2026-04-26 19:08 | 43.11969 | -76.09392 | 1343 ft | 119 kts | 358° |
| 2026-04-26 19:08 | 43.12652 | -76.10047 | 1376 ft | 139 kts | 293° |
| 2026-04-26 19:09 | 43.12667 | -76.11407 | 1425 ft | 142 kts | 269° |
| 2026-04-26 19:09 | 43.12590 | -76.12737 | 1446 ft | 140 kts | 266° |
| 2026-04-26 19:09 | 43.12487 | -76.14034 | 1412 ft | 136 kts | 267° |
| 2026-04-26 19:09 | 43.12420 | -76.15313 | 1413 ft | 134 kts | 270° |
| 2026-04-26 19:10 | 43.12356 | -76.16590 | 1393 ft | 136 kts | 266° |
| 2026-04-26 19:10 | 43.12072 | -76.17809 | 1339 ft | 139 kts | 227° |
| 2026-04-26 19:10 | 43.11183 | -76.18101 | 1425 ft | 136 kts | 171° |
| 2026-04-26 19:10 | 43.10521 | -76.17313 | 1373 ft | 132 kts | 75° |
| 2026-04-26 19:11 | 43.10733 | -76.16031 | 931 ft | 141 kts | 89° |
| 2026-04-26 19:11 | 43.10747 | -76.14915 | 827 ft | 89 kts | 83° |
| 2026-04-26 19:11 | 43.10765 | -76.14165 | 657 ft | 72 kts | 86° |
| 2026-04-26 19:11 | 43.10795 | -76.13466 | 542 ft | 78 kts | 85° |
| 2026-04-26 19:12 | 43.10818 | -76.12731 | 480 ft | 73 kts | 84° |
| 2026-04-26 19:12 | 43.10836 | -76.12107 | 423 ft | 57 kts | 85° |
| 2026-04-26 19:12 | 43.10855 | -76.11473 | 454 ft | 86 kts | 87° |
| 2026-04-26 19:12 | 43.10888 | -76.10488 | 469 ft | 120 kts | 85° |
| 2026-04-26 19:13 | 43.10921 | -76.09581 | 1048 ft | 91 kts | 73° |
| 2026-04-26 19:13 | 43.11518 | -76.09182 | 1138 ft | 115 kts | 7° |
| 2026-04-26 19:13 | 43.12058 | -76.09716 | 1255 ft | 127 kts | 274° |
| 2026-04-26 19:13 | 43.12024 | -76.10981 | 1337 ft | 138 kts | 269° |
| 2026-04-26 19:14 | 43.11918 | -76.12303 | 1456 ft | 144 kts | 267° |
| 2026-04-26 19:14 | 43.11819 | -76.13754 | 1333 ft | 153 kts | 268° |
| 2026-04-26 19:14 | 43.11724 | -76.15166 | 1485 ft | 146 kts | 270° |
| 2026-04-26 19:14 | 43.11402 | -76.15914 | 1270 ft | 137 kts | 211° |
| 2026-04-26 19:15 | 43.10706 | -76.15417 | 868 ft | 105 kts | 74° |
| 2026-04-26 19:15 | 43.10759 | -76.14585 | 687 ft | 78 kts | 84° |
| 2026-04-26 19:15 | 43.10781 | -76.13867 | 559 ft | 76 kts | 83° |
| 2026-04-26 19:15 | 43.10806 | -76.13145 | 500 ft | 77 kts | 85° |
| 2026-04-26 19:16 | 43.10825 | -76.12454 | 430 ft | 65 kts | 86° |
| 2026-04-26 19:16 | 43.10845 | -76.11896 | 418 ft | 65 kts | 85° |
| 2026-04-26 19:16 | 43.10866 | -76.11060 | 470 ft | 104 kts | 86° |
| 2026-04-26 19:16 | 43.10897 | -76.09976 | 779 ft | 96 kts | 90° |
| 2026-04-26 19:17 | 43.10883 | -76.09215 | 1384 ft | 75 kts | 84° |
| 2026-04-26 19:17 | 43.11371 | -76.08800 | 1343 ft | 113 kts | 3° |
| 2026-04-26 19:17 | 43.12214 | -76.08823 | 1398 ft | 129 kts | 347° |
| 2026-04-26 19:17 | 43.12570 | -76.09898 | 1401 ft | 145 kts | 269° |
| 2026-04-26 19:18 | 43.12527 | -76.11315 | 1394 ft | 152 kts | 269° |
| 2026-04-26 19:18 | 43.12412 | -76.12625 | 1416 ft | 122 kts | 265° |
| 2026-04-26 19:18 | 43.12030 | -76.13376 | 1303 ft | 89 kts | 195° |
| 2026-04-26 19:18 | 43.11422 | -76.13352 | 921 ft | 85 kts | 171° |
| 2026-04-26 19:19 | 43.10914 | -76.13053 | 635 ft | 79 kts | 129° |
| 2026-04-26 19:19 | 43.10829 | -76.12375 | 426 ft | 68 kts | 85° |
| 2026-04-26 19:19 | 43.10846 | -76.11808 | 422 ft | 53 kts | 87° |
| 2026-04-26 19:19 | 43.10867 | -76.11127 | 440 ft | 94 kts | 86° |
| 2026-04-26 19:20 | 43.10902 | -76.10065 | 442 ft | 127 kts | 85° |
| 2026-04-26 19:20 | 43.10918 | -76.09384 | 959 ft | 92 kts | 89° |
| 2026-04-26 19:20 | 43.11012 | -76.08290 | 1414 ft | 101 kts | 54° |
| 2026-04-26 19:20 | 43.11727 | -76.08027 | 1398 ft | 127 kts | 1° |
| 2026-04-26 19:21 | 43.12580 | -76.08336 | 1418 ft | 137 kts | 314° |
| 2026-04-26 19:21 | 43.12734 | -76.09667 | 1358 ft | 152 kts | 269° |
| 2026-04-26 19:21 | 43.12664 | -76.11090 | 1356 ft | 151 kts | 269° |
| 2026-04-26 19:21 | 43.12584 | -76.12500 | 1499 ft | 150 kts | 268° |
| 2026-04-26 19:22 | 43.12489 | -76.13861 | 1396 ft | 132 kts | 253° |
| 2026-04-26 19:22 | 43.11754 | -76.14351 | 1149 ft | 120 kts | 183° |
| 2026-04-26 19:22 | 43.11090 | -76.14140 | 939 ft | 89 kts | 132° |
| 2026-04-26 19:22 | 43.10837 | -76.13419 | 624 ft | 80 kts | 97° |
| 2026-04-26 19:23 | 43.10819 | -76.12713 | 450 ft | 69 kts | 86° |
| 2026-04-26 19:23 | 43.10838 | -76.12090 | 421 ft | 77 kts | 88° |
| 2026-04-26 19:23 | 43.10867 | -76.11136 | 437 ft | 119 kts | 85° |
| 2026-04-26 19:23 | 43.10895 | -76.10096 | 1039 ft | 81 kts | 85° |
| 2026-04-26 19:24 | 43.10909 | -76.09341 | 1414 ft | 88 kts | 84° |
| 2026-04-26 19:24 | 43.11239 | -76.08528 | 1384 ft | 120 kts | 11° |
| 2026-04-26 19:24 | 43.12754 | -76.09257 | 1375 ft | 148 kts | 274° |
| 2026-04-26 19:25 | 43.12618 | -76.10667 | 1371 ft | 148 kts | 266° |
| 2026-04-26 19:25 | 43.12571 | -76.11138 | 1391 ft | 148 kts | 265° |
| 2026-04-26 19:25 | 43.12324 | -76.13500 | 1458 ft | 152 kts | 267° |
| 2026-04-26 19:25 | 43.12230 | -76.14952 | 1485 ft | 153 kts | 266° |
| 2026-04-26 19:26 | 43.11633 | -76.15983 | 1345 ft | 144 kts | 193° |
| 2026-04-26 19:26 | 43.10818 | -76.15596 | 1091 ft | 125 kts | 103° |
| 2026-04-26 19:26 | 43.10752 | -76.14625 | 917 ft | 86 kts | 81° |
| 2026-04-26 19:26 | 43.10789 | -76.13850 | 652 ft | 79 kts | 87° |
| 2026-04-26 19:27 | 43.10805 | -76.13108 | 527 ft | 77 kts | 85° |
| 2026-04-26 19:27 | 43.10827 | -76.12435 | 430 ft | 64 kts | 83° |
| 2026-04-26 19:27 | 43.10844 | -76.11889 | 422 ft | 61 kts | 89° |
| 2026-04-26 19:27 | 43.10872 | -76.11065 | 426 ft | 109 kts | 88° |
| 2026-04-26 19:28 | 43.10909 | -76.09910 | 530 ft | 128 kts | 85° |
| 2026-04-26 19:28 | 43.10943 | -76.08875 | 1216 ft | 90 kts | 77° |
| 2026-04-26 19:28 | 43.11552 | -76.08607 | 1326 ft | 111 kts | 1° |
| 2026-04-26 19:28 | 43.12268 | -76.09024 | 1424 ft | 125 kts | 298° |
| 2026-04-26 19:29 | 43.12331 | -76.10260 | 1489 ft | 131 kts | 271° |
| 2026-04-26 19:29 | 43.12284 | -76.11480 | 1515 ft | 130 kts | 268° |
| 2026-04-26 19:29 | 43.12112 | -76.12747 | 1353 ft | 134 kts | 257° |
| 2026-04-26 19:29 | 43.11631 | -76.13358 | 1200 ft | 89 kts | 185° |
| 2026-04-26 19:30 | 43.11028 | -76.13311 | 797 ft | 85 kts | 159° |
| 2026-04-26 19:30 | 43.10823 | -76.12635 | 470 ft | 79 kts | 86° |
| 2026-04-26 19:30 | 43.10841 | -76.11988 | 423 ft | 59 kts | 83° |
| 2026-04-26 19:30 | 43.10852 | -76.11665 | 422 ft | 32 kts | 88° |
| 2026-04-26 19:31 | 43.10860 | -76.11412 | 425 ft | 24 kts | 87° |
| 2026-04-26 19:31 | 43.10784 | -76.11300 | 424 ft | 17 kts | 180° |
| 2026-04-26 19:31 | 43.10707 | -76.11295 | 423 ft | 15 kts | 177° |
| 2026-04-26 19:31 | 43.10562 | -76.11364 | 419 ft | 26 kts | 217° |
| 2026-04-26 19:32 | 43.10603 | -76.11438 | 423 ft | 0 kts | 28° |